Database: COMPET-N - COOP - 3PL - 4PL - CNDOOM

WAD: Doom | Doom 2 | TNT | Plutonia | AV | HR | Scythe | MM | MM2 | Requiem | CE
Category: speed | nmare | max | nm100s | tyson | pacifist | fast | respawn | nomo | misc | built | all
Highscore: ALL | IWAD | PWAD | Country | Continent

Remove: wad | map | category | player | all
MapPlayerTimeDateFilenameCommentsDL
MAP21: SlayerChris Ratcliff1:22.002002-01-26pr21-122.zip - 284
MAP01: Into the GateChris Ratcliff1:24.002001-03-30he01-124.zip - 625
E4M2: Perfect HatredChris Ratcliff1:28.002000-09-16r4m2-128.zip - 283
MAP22: The CatacombsChris Ratcliff1:39.002001-03-23re22-139.zip - 303
E4M9: FearChris Ratcliff2:06.002000-09-10r4m9-206.zip - 282
MAP08: Tricks And TrapsChris Ratcliff2:07.002000-09-13re08-207.zip - 282
E3M6: Mt. ErebusChris Ratcliff2:14.002000-09-10r3m6-214.zip - 284
E4M5: They Will RepentChris Ratcliff2:24.002001-01-19r4m5-224.zip - 291
MAP10: RedemptionChris Ratcliff2:30.002001-09-19er10-230.zip - 297
E1M3: Toxin RefineryChris Ratcliff2:32.002000-09-16r1m3-232.zip - 369
MAP10: The MansionChris Ratcliff2:44.002002-04-12mm10r244.zip - 274
E4M6: Against Thee WickedlyChris Ratcliff3:12.002000-09-10r4m6-312.zip - 264
E2M7: A Place of SinChris Ratcliff3:15.002001-10-30cr27-315.zip - 518
E3M5: Unholy CathedralChris Ratcliff3:30.002000-09-10r3m5-330.zip - 281
MAP02: Well of SoulsChris Ratcliff3:31.002001-11-24pr02-331.zip - 317
MAP09: The PitChris Ratcliff3:31.002013-09-08re09-331.zip - 887
MAP17: Processing AreaChris Ratcliff3:33.002001-09-24er17-333.zip - 309
MAP13: Nukage ProcessingChris Ratcliff3:51.002001-10-31er13-351.zip - 268
MAP10: Refueling BaseChris Ratcliff3:58.002000-07-27re10-358.zip - 289
E2M6: Halls Of The DamnedChris Ratcliff4:11.002000-08-30r2m6-411.zip - 297
MAP28: The SewersChris Ratcliff4:15.002010-06-17pr28-415.zip - 379
MAP28: HeckChris Ratcliff4:42.002001-09-17er28-442.zip - 429
MAP19: The CitadelChris Ratcliff4:47.002001-02-20re19-447.zip - 268
E3M4: House Of PainChris Ratcliff4:49.002000-09-10r3m4-449.zip - 307
MAP12: CraterChris Ratcliff4:57.002001-10-31er12-457.zip - 288
MAP07: PrisonChris Ratcliff4:58.002001-10-29er07-458.zip - 280
MAP27: CyberpunkChris Ratcliff4:58.002001-04-20he27-458.zip - 258
MAP19: The CitadelChris Ratcliff5:04.002001-02-19re19-504.zip - 272
MAP32: CaribbeanChris Ratcliff5:22.002001-10-29er32-522.zip - 409
MAP26: BallistyxChris Ratcliff5:41.002001-09-24er26-541.zip - 415
MAP21: SiegeChris Ratcliff5:43.002001-03-29he21-543.zip - 263
MAP20: Mountain DepotChris Ratcliff5:48.002002-05-04mm20r548.zip - 371
MAP25: Barons DenChris Ratcliff6:00.002001-09-17er25-600.zip - 405
MAP28: The SewersChris Ratcliff7:58.002001-11-22pr28-758.zip - 260
Remove: wad | map | category | player | all